Airfield :







YOU CAN JOIN US ON...

 
LOGIN :

Register | Disclaimer

   EN    FR    IT 

 









Legend :    VFR   Marginal VFR   IFR   Intensive IFR   Very Intensive IFR
Visi :
Ceiling :
>= 8 km
>= 3000ft
5 to 8 km
1000 to 3000 ft
1500m to 5 km
500 to 1000 ft
800 to 1500m
200 to 500 ft
< 800m
< 200 ft
Symbols :   Thunderstorms  Fog  Heavy snow  Heavy precipitations  Wind > 20 kt







- Airport Elevation : 266 ft
- IATA code : MHT


KMHT - Manchester

CURRENT METAR :
  • 261753Z 31014G19KT 10SM CLR 04/M19 A3025 RMK AO2 SLP260 T00441189 10044 21022 58005

EXPIRED METARs :
  • 261653Z 32013KT 10SM CLR 03/M19 A3025 RMK AO2 SLP263 T00331194
  • 261553Z 34010G22KT 10SM FEW200 03/M19 A3026 RMK AO2 SLP265 T00331189

TAF KMHT
Valid from the 26 at 18:00 until the 27 at 18:00 UTC


261800Z 2618/2718 32010G16KT P6SM SKC
FM262200 33005KT P6SM SKC
KZBW FIR / North America



MET'MAP, your aeronautical weather chart ! - Copyright ORBIFLY December 2007 - Disclaimer

ORBIFLY MET'MAP TEAM :

Programming & Development : Alexandra Zaïnal
Concept & Development : Baudouin d'Aumeries
Co-Development & Prog : Marc-Olivier Méhu
Technical & hardware support : Manuel Goepfert

Contact : metmap@orbifly.com




SOURCES & CREDITS :

   NOAA